sensor_id;sensor_type;location;lat;lon;timestamp;temperature;humidity
54158;DHT22;40065;49.894;10.358;2022-08-19T00:02:34;22.90;93.90
54158;DHT22;40065;49.894;10.358;2022-08-19T00:07:36;22.90;94.00
54158;DHT22;40065;49.894;10.358;2022-08-19T00:12:39;22.90;94.00
54158;DHT22;40065;49.894;10.358;2022-08-19T00:17:48;22.90;94.00
54158;DHT22;40065;49.894;10.358;2022-08-19T00:22:50;22.80;94.40
54158;DHT22;40065;49.894;10.358;2022-08-19T00:27:53;22.70;94.50
54158;DHT22;40065;49.894;10.358;2022-08-19T00:32:55;22.60;94.80
54158;DHT22;40065;49.894;10.358;2022-08-19T00:37:57;22.60;95.00
54158;DHT22;40065;49.894;10.358;2022-08-19T00:43:00;22.60;95.00
54158;DHT22;40065;49.894;10.358;2022-08-19T00:48:02;22.50;95.10
54158;DHT22;40065;49.894;10.358;2022-08-19T00:53:16;22.60;95.30
54158;DHT22;40065;49.894;10.358;2022-08-19T00:58:23;22.50;95.40
54158;DHT22;40065;49.894;10.358;2022-08-19T01:03:26;22.40;95.40
54158;DHT22;40065;49.894;10.358;2022-08-19T01:08:28;22.40;95.50
54158;DHT22;40065;49.894;10.358;2022-08-19T01:13:32;22.30;95.70
54158;DHT22;40065;49.894;10.358;2022-08-19T01:18:50;22.30;95.90
54158;DHT22;40065;49.894;10.358;2022-08-19T01:23:52;22.20;96.00
54158;DHT22;40065;49.894;10.358;2022-08-19T01:28:57;22.20;96.10
54158;DHT22;40065;49.894;10.358;2022-08-19T01:34:02;22.10;96.20
54158;DHT22;40065;49.894;10.358;2022-08-19T01:39:09;22.00;96.30
54158;DHT22;40065;49.894;10.358;2022-08-19T01:44:11;22.00;96.40
54158;DHT22;40065;49.894;10.358;2022-08-19T01:49:21;22.00;96.70
54158;DHT22;40065;49.894;10.358;2022-08-19T01:54:24;22.00;96.60
54158;DHT22;40065;49.894;10.358;2022-08-19T01:59:29;21.90;96.90
54158;DHT22;40065;49.894;10.358;2022-08-19T02:04:31;22.00;96.70
54158;DHT22;40065;49.894;10.358;2022-08-19T02:09:34;22.00;96.60
54158;DHT22;40065;49.894;10.358;2022-08-19T02:14:36;22.00;96.60
54158;DHT22;40065;49.894;10.358;2022-08-19T02:19:38;21.90;96.40
54158;DHT22;40065;49.894;10.358;2022-08-19T02:24:41;21.90;96.60
54158;DHT22;40065;49.894;10.358;2022-08-19T02:29:46;21.90;96.70
54158;DHT22;40065;49.894;10.358;2022-08-19T02:34:49;21.90;96.70
54158;DHT22;40065;49.894;10.358;2022-08-19T02:39:51;21.90;96.90
54158;DHT22;40065;49.894;10.358;2022-08-19T02:44:55;21.80;96.90
54158;DHT22;40065;49.894;10.358;2022-08-19T02:49:57;21.80;96.90
54158;DHT22;40065;49.894;10.358;2022-08-19T02:54:59;21.80;97.00
54158;DHT22;40065;49.894;10.358;2022-08-19T03:00:08;21.80;97.00
54158;DHT22;40065;49.894;10.358;2022-08-19T03:05:13;21.70;96.90
54158;DHT22;40065;49.894;10.358;2022-08-19T03:10:14;21.60;97.10
54158;DHT22;40065;49.894;10.358;2022-08-19T03:15:17;21.60;97.40
54158;DHT22;40065;49.894;10.358;2022-08-19T03:20:18;21.40;97.70
54158;DHT22;40065;49.894;10.358;2022-08-19T03:25:20;21.40;97.70
54158;DHT22;40065;49.894;10.358;2022-08-19T03:30:22;21.40;97.60
54158;DHT22;40065;49.894;10.358;2022-08-19T03:35:24;21.60;97.70
54158;DHT22;40065;49.894;10.358;2022-08-19T03:40:26;21.60;97.60
54158;DHT22;40065;49.894;10.358;2022-08-19T03:45:28;21.60;97.60
54158;DHT22;40065;49.894;10.358;2022-08-19T03:50:30;21.60;97.70
54158;DHT22;40065;49.894;10.358;2022-08-19T03:55:32;21.60;97.80
54158;DHT22;40065;49.894;10.358;2022-08-19T04:00:34;21.40;97.90
54158;DHT22;40065;49.894;10.358;2022-08-19T04:05:36;21.40;97.90
54158;DHT22;40065;49.894;10.358;2022-08-19T04:10:39;21.50;97.90
54158;DHT22;40065;49.894;10.358;2022-08-19T04:15:44;21.50;98.00
54158;DHT22;40065;49.894;10.358;2022-08-19T04:20:48;21.50;98.10
54158;DHT22;40065;49.894;10.358;2022-08-19T04:25:51;21.60;98.00
54158;DHT22;40065;49.894;10.358;2022-08-19T04:30:54;21.60;97.80
54158;DHT22;40065;49.894;10.358;2022-08-19T04:35:56;21.60;97.90
54158;DHT22;40065;49.894;10.358;2022-08-19T04:40:59;21.70;97.80
54158;DHT22;40065;49.894;10.358;2022-08-19T04:46:19;21.70;97.80
54158;DHT22;40065;49.894;10.358;2022-08-19T04:51:43;21.80;97.80
54158;DHT22;40065;49.894;10.358;2022-08-19T04:56:45;21.90;97.60
54158;DHT22;40065;49.894;10.358;2022-08-19T05:01:47;21.90;97.60
54158;DHT22;40065;49.894;10.358;2022-08-19T05:06:51;22.00;97.50
54158;DHT22;40065;49.894;10.358;2022-08-19T05:12:00;22.00;97.40
54158;DHT22;40065;49.894;10.358;2022-08-19T05:17:02;22.00;97.10
54158;DHT22;40065;49.894;10.358;2022-08-19T05:22:23;22.00;97.00
54158;DHT22;40065;49.894;10.358;2022-08-19T05:27:36;22.00;97.30
54158;DHT22;40065;49.894;10.358;2022-08-19T05:32:39;22.30;97.20
54158;DHT22;40065;49.894;10.358;2022-08-19T05:37:41;22.60;96.40
54158;DHT22;40065;49.894;10.358;2022-08-19T05:42:42;22.60;96.30
54158;DHT22;40065;49.894;10.358;2022-08-19T05:47:44;22.50;96.30
54158;DHT22;40065;49.894;10.358;2022-08-19T05:52:46;22.50;96.40
54158;DHT22;40065;49.894;10.358;2022-08-19T05:57:51;22.60;96.30
54158;DHT22;40065;49.894;10.358;2022-08-19T06:02:53;22.70;96.20
54158;DHT22;40065;49.894;10.358;2022-08-19T06:08:13;22.80;96.00
54158;DHT22;40065;49.894;10.358;2022-08-19T06:13:14;22.70;96.20
54158;DHT22;40065;49.894;10.358;2022-08-19T06:18:16;22.70;96.10
54158;DHT22;40065;49.894;10.358;2022-08-19T06:23:18;22.50;96.60
54158;DHT22;40065;49.894;10.358;2022-08-19T06:28:24;22.60;96.60
54158;DHT22;40065;49.894;10.358;2022-08-19T06:33:26;22.50;96.40
54158;DHT22;40065;49.894;10.358;2022-08-19T06:38:28;22.70;96.30
54158;DHT22;40065;49.894;10.358;2022-08-19T06:43:30;22.80;96.10
54158;DHT22;40065;49.894;10.358;2022-08-19T06:48:32;22.70;96.30
54158;DHT22;40065;49.894;10.358;2022-08-19T06:53:48;22.70;96.50
54158;DHT22;40065;49.894;10.358;2022-08-19T06:58:55;22.70;96.80
54158;DHT22;40065;49.894;10.358;2022-08-19T07:03:56;22.60;97.80
54158;DHT22;40065;49.894;10.358;2022-08-19T07:08:59;22.60;98.70
54158;DHT22;40065;49.894;10.358;2022-08-19T07:14:02;22.60;98.10
54158;DHT22;40065;49.894;10.358;2022-08-19T07:19:04;22.80;97.70
54158;DHT22;40065;49.894;10.358;2022-08-19T07:24:17;23.00;97.30
54158;DHT22;40065;49.894;10.358;2022-08-19T07:29:20;23.00;96.50
54158;DHT22;40065;49.894;10.358;2022-08-19T07:34:27;23.00;97.00
54158;DHT22;40065;49.894;10.358;2022-08-19T07:39:30;23.00;96.60
54158;DHT22;40065;49.894;10.358;2022-08-19T07:44:33;22.90;96.70
54158;DHT22;40065;49.894;10.358;2022-08-19T07:49:35;23.00;97.30
54158;DHT22;40065;49.894;10.358;2022-08-19T07:54:38;22.90;98.30
54158;DHT22;40065;49.894;10.358;2022-08-19T07:59:40;22.60;99.20
54158;DHT22;40065;49.894;10.358;2022-08-19T08:04:42;22.70;99.30
54158;DHT22;40065;49.894;10.358;2022-08-19T08:10:04;22.80;98.70
54158;DHT22;40065;49.894;10.358;2022-08-19T08:15:21;22.90;98.50
54158;DHT22;40065;49.894;10.358;2022-08-19T08:20:25;22.80;98.80
54158;DHT22;40065;49.894;10.358;2022-08-19T08:25:27;22.50;99.40
54158;DHT22;40065;49.894;10.358;2022-08-19T08:30:33;22.40;99.90
54158;DHT22;40065;49.894;10.358;2022-08-19T08:35:38;22.20;99.90
54158;DHT22;40065;49.894;10.358;2022-08-19T08:40:49;22.10;99.90
54158;DHT22;40065;49.894;10.358;2022-08-19T08:46:01;22.10;99.90
54158;DHT22;40065;49.894;10.358;2022-08-19T08:51:09;22.30;99.90
54158;DHT22;40065;49.894;10.358;2022-08-19T08:56:12;22.20;99.90
54158;DHT22;40065;49.894;10.358;2022-08-19T09:01:19;21.90;99.90
54158;DHT22;40065;49.894;10.358;2022-08-19T09:06:26;21.90;99.90
54158;DHT22;40065;49.894;10.358;2022-08-19T09:16:58;22.00;99.90
54158;DHT22;40065;49.894;10.358;2022-08-19T09:22:01;21.90;99.90
54158;DHT22;40065;49.894;10.358;2022-08-19T09:27:02;21.90;99.90
54158;DHT22;40065;49.894;10.358;2022-08-19T09:32:20;21.90;99.90
54158;DHT22;40065;49.894;10.358;2022-08-19T09:37:27;22.00;99.90
54158;DHT22;40065;49.894;10.358;2022-08-19T09:42:29;22.10;99.90
54158;DHT22;40065;49.894;10.358;2022-08-19T09:47:36;22.40;99.90
54158;DHT22;40065;49.894;10.358;2022-08-19T09:52:41;22.60;99.90
54158;DHT22;40065;49.894;10.358;2022-08-19T09:57:56;22.60;99.90
54158;DHT22;40065;49.894;10.358;2022-08-19T10:02:57;22.60;99.90
54158;DHT22;40065;49.894;10.358;2022-08-19T10:07:59;22.50;99.90
54158;DHT22;40065;49.894;10.358;2022-08-19T10:13:05;22.50;99.90
54158;DHT22;40065;49.894;10.358;2022-08-19T10:18:08;22.50;99.90
54158;DHT22;40065;49.894;10.358;2022-08-19T10:23:10;22.40;99.90
54158;DHT22;40065;49.894;10.358;2022-08-19T10:28:12;22.40;99.90
54158;DHT22;40065;49.894;10.358;2022-08-19T10:33:14;22.50;99.90
54158;DHT22;40065;49.894;10.358;2022-08-19T10:38:37;22.60;99.90
54158;DHT22;40065;49.894;10.358;2022-08-19T10:43:40;22.60;99.90
54158;DHT22;40065;49.894;10.358;2022-08-19T10:48:43;22.50;99.90
54158;DHT22;40065;49.894;10.358;2022-08-19T10:53:45;22.70;99.90
54158;DHT22;40065;49.894;10.358;2022-08-19T10:58:48;22.70;99.90
54158;DHT22;40065;49.894;10.358;2022-08-19T11:03:50;22.80;99.90
54158;DHT22;40065;49.894;10.358;2022-08-19T11:08:56;23.10;99.90
54158;DHT22;40065;49.894;10.358;2022-08-19T11:13:58;23.10;99.90
54158;DHT22;40065;49.894;10.358;2022-08-19T11:19:00;23.10;99.90
54158;DHT22;40065;49.894;10.358;2022-08-19T11:24:23;23.10;99.90
54158;DHT22;40065;49.894;10.358;2022-08-19T11:29:25;23.20;99.90
54158;DHT22;40065;49.894;10.358;2022-08-19T11:34:27;23.20;99.90
54158;DHT22;40065;49.894;10.358;2022-08-19T11:39:31;23.40;99.90
54158;DHT22;40065;49.894;10.358;2022-08-19T11:44:34;23.50;99.90
54158;DHT22;40065;49.894;10.358;2022-08-19T11:49:37;23.10;99.90
54158;DHT22;40065;49.894;10.358;2022-08-19T11:54:39;23.20;99.90
54158;DHT22;40065;49.894;10.358;2022-08-19T11:59:41;23.20;99.90
54158;DHT22;40065;49.894;10.358;2022-08-19T12:04:43;23.30;99.90
54158;DHT22;40065;49.894;10.358;2022-08-19T12:09:44;23.50;99.90
54158;DHT22;40065;49.894;10.358;2022-08-19T12:14:49;23.80;99.90
54158;DHT22;40065;49.894;10.358;2022-08-19T12:19:53;24.00;99.90
54158;DHT22;40065;49.894;10.358;2022-08-19T12:24:55;24.00;99.90
54158;DHT22;40065;49.894;10.358;2022-08-19T12:29:57;24.20;99.90
54158;DHT22;40065;49.894;10.358;2022-08-19T12:35:02;24.20;99.90
54158;DHT22;40065;49.894;10.358;2022-08-19T12:40:05;24.30;99.90
54158;DHT22;40065;49.894;10.358;2022-08-19T12:45:11;24.10;99.90
54158;DHT22;40065;49.894;10.358;2022-08-19T12:50:13;24.00;99.90
54158;DHT22;40065;49.894;10.358;2022-08-19T12:55:15;23.90;99.90
54158;DHT22;40065;49.894;10.358;2022-08-19T13:00:19;23.90;99.90
54158;DHT22;40065;49.894;10.358;2022-08-19T13:05:25;24.00;99.90
54158;DHT22;40065;49.894;10.358;2022-08-19T13:10:31;24.20;99.90
54158;DHT22;40065;49.894;10.358;2022-08-19T13:15:38;24.50;99.90
54158;DHT22;40065;49.894;10.358;2022-08-19T13:20:42;24.70;99.00
54158;DHT22;40065;49.894;10.358;2022-08-19T13:26:02;24.90;98.00
54158;DHT22;40065;49.894;10.358;2022-08-19T13:31:05;25.10;95.80
54158;DHT22;40065;49.894;10.358;2022-08-19T13:36:25;25.30;94.90
54158;DHT22;40065;49.894;10.358;2022-08-19T13:41:28;25.30;95.40
54158;DHT22;40065;49.894;10.358;2022-08-19T13:46:30;25.40;95.10
54158;DHT22;40065;49.894;10.358;2022-08-19T13:51:32;25.30;95.00
54158;DHT22;40065;49.894;10.358;2022-08-19T13:56:39;25.20;94.90
54158;DHT22;40065;49.894;10.358;2022-08-19T14:01:41;25.10;95.30
54158;DHT22;40065;49.894;10.358;2022-08-19T14:06:43;25.10;94.40
54158;DHT22;40065;49.894;10.358;2022-08-19T14:11:45;24.90;93.80
54158;DHT22;40065;49.894;10.358;2022-08-19T14:16:48;24.70;93.70
54158;DHT22;40065;49.894;10.358;2022-08-19T14:21:50;24.70;93.40
54158;DHT22;40065;49.894;10.358;2022-08-19T14:26:52;24.70;93.50
54158;DHT22;40065;49.894;10.358;2022-08-19T14:31:54;24.60;92.80
54158;DHT22;40065;49.894;10.358;2022-08-19T14:36:57;24.50;93.00
54158;DHT22;40065;49.894;10.358;2022-08-19T14:42:09;24.50;92.30
54158;DHT22;40065;49.894;10.358;2022-08-19T14:47:12;24.50;91.40
54158;DHT22;40065;49.894;10.358;2022-08-19T14:52:14;24.50;90.80
54158;DHT22;40065;49.894;10.358;2022-08-19T14:57:16;24.40;90.20
54158;DHT22;40065;49.894;10.358;2022-08-19T15:02:18;24.30;90.30
54158;DHT22;40065;49.894;10.358;2022-08-19T15:07:36;24.20;91.10
54158;DHT22;40065;49.894;10.358;2022-08-19T15:12:40;24.20;91.00
54158;DHT22;40065;49.894;10.358;2022-08-19T15:17:43;24.20;91.70
54158;DHT22;40065;49.894;10.358;2022-08-19T15:22:47;24.20;91.40
54158;DHT22;40065;49.894;10.358;2022-08-19T15:27:49;24.20;90.70
54158;DHT22;40065;49.894;10.358;2022-08-19T15:32:52;24.20;90.70
54158;DHT22;40065;49.894;10.358;2022-08-19T15:37:55;24.20;90.80
54158;DHT22;40065;49.894;10.358;2022-08-19T15:42:57;24.20;91.10
54158;DHT22;40065;49.894;10.358;2022-08-19T15:48:00;24.10;92.50
54158;DHT22;40065;49.894;10.358;2022-08-19T15:53:05;24.20;92.30
54158;DHT22;40065;49.894;10.358;2022-08-19T15:58:10;24.10;93.30
54158;DHT22;40065;49.894;10.358;2022-08-19T16:03:31;24.10;94.10
54158;DHT22;40065;49.894;10.358;2022-08-19T16:08:55;24.10;92.80
54158;DHT22;40065;49.894;10.358;2022-08-19T16:13:58;23.80;94.10
54158;DHT22;40065;49.894;10.358;2022-08-19T16:19:05;23.80;94.60
54158;DHT22;40065;49.894;10.358;2022-08-19T16:24:13;24.00;94.40
54158;DHT22;40065;49.894;10.358;2022-08-19T16:29:17;23.90;95.60
54158;DHT22;40065;49.894;10.358;2022-08-19T16:34:35;23.60;97.60
54158;DHT22;40065;49.894;10.358;2022-08-19T16:39:39;23.60;98.90
54158;DHT22;40065;49.894;10.358;2022-08-19T16:44:44;23.50;99.00
54158;DHT22;40065;49.894;10.358;2022-08-19T16:49:46;23.20;99.90
54158;DHT22;40065;49.894;10.358;2022-08-19T16:54:55;23.20;99.90
54158;DHT22;40065;49.894;10.358;2022-08-19T16:59:57;23.30;99.90
54158;DHT22;40065;49.894;10.358;2022-08-19T17:04:58;23.30;99.90
54158;DHT22;40065;49.894;10.358;2022-08-19T17:10:03;23.20;99.90
54158;DHT22;40065;49.894;10.358;2022-08-19T17:15:06;23.20;99.90
54158;DHT22;40065;49.894;10.358;2022-08-19T17:20:11;23.00;99.90
54158;DHT22;40065;49.894;10.358;2022-08-19T17:25:13;22.70;99.90
54158;DHT22;40065;49.894;10.358;2022-08-19T17:30:17;22.80;99.90
54158;DHT22;40065;49.894;10.358;2022-08-19T17:35:19;22.70;99.90
54158;DHT22;40065;49.894;10.358;2022-08-19T17:40:25;22.70;99.90
54158;DHT22;40065;49.894;10.358;2022-08-19T17:45:30;22.60;99.90
54158;DHT22;40065;49.894;10.358;2022-08-19T17:50:33;22.60;99.90
54158;DHT22;40065;49.894;10.358;2022-08-19T17:55:35;22.70;99.90
54158;DHT22;40065;49.894;10.358;2022-08-19T18:00:38;22.30;99.90
54158;DHT22;40065;49.894;10.358;2022-08-19T18:05:54;22.00;99.90
54158;DHT22;40065;49.894;10.358;2022-08-19T18:10:58;22.00;99.90
54158;DHT22;40065;49.894;10.358;2022-08-19T18:16:01;22.20;99.90
54158;DHT22;40065;49.894;10.358;2022-08-19T18:21:03;22.10;99.90
54158;DHT22;40065;49.894;10.358;2022-08-19T18:26:05;21.70;99.90
54158;DHT22;40065;49.894;10.358;2022-08-19T18:31:07;21.80;99.90
54158;DHT22;40065;49.894;10.358;2022-08-19T18:36:09;21.80;99.90
54158;DHT22;40065;49.894;10.358;2022-08-19T18:41:10;21.60;99.90
54158;DHT22;40065;49.894;10.358;2022-08-19T18:46:31;21.70;99.90
54158;DHT22;40065;49.894;10.358;2022-08-19T18:51:52;21.60;99.90
54158;DHT22;40065;49.894;10.358;2022-08-19T18:56:56;21.60;99.90
54158;DHT22;40065;49.894;10.358;2022-08-19T19:01:58;21.70;99.90
54158;DHT22;40065;49.894;10.358;2022-08-19T19:07:01;21.60;99.90
54158;DHT22;40065;49.894;10.358;2022-08-19T19:12:05;21.40;99.90
54158;DHT22;40065;49.894;10.358;2022-08-19T19:17:13;21.30;99.90
54158;DHT22;40065;49.894;10.358;2022-08-19T19:22:18;21.40;99.90
54158;DHT22;40065;49.894;10.358;2022-08-19T19:27:20;21.20;99.90
54158;DHT22;40065;49.894;10.358;2022-08-19T19:32:25;21.00;99.90
54158;DHT22;40065;49.894;10.358;2022-08-19T19:37:28;21.10;99.90
54158;DHT22;40065;49.894;10.358;2022-08-19T19:42:30;21.10;99.90
54158;DHT22;40065;49.894;10.358;2022-08-19T19:47:32;21.10;99.90
54158;DHT22;40065;49.894;10.358;2022-08-19T19:52:34;21.10;99.90
54158;DHT22;40065;49.894;10.358;2022-08-19T19:57:36;21.20;99.90
54158;DHT22;40065;49.894;10.358;2022-08-19T20:02:39;21.30;99.90
54158;DHT22;40065;49.894;10.358;2022-08-19T20:07:41;21.10;99.90
54158;DHT22;40065;49.894;10.358;2022-08-19T20:13:03;21.20;99.90
54158;DHT22;40065;49.894;10.358;2022-08-19T20:18:05;21.30;99.90
54158;DHT22;40065;49.894;10.358;2022-08-19T20:23:07;20.90;99.90
54158;DHT22;40065;49.894;10.358;2022-08-19T20:28:09;21.00;99.90
54158;DHT22;40065;49.894;10.358;2022-08-19T20:33:12;20.80;99.90
54158;DHT22;40065;49.894;10.358;2022-08-19T20:38:15;21.00;99.90
54158;DHT22;40065;49.894;10.358;2022-08-19T20:43:17;20.60;99.90
54158;DHT22;40065;49.894;10.358;2022-08-19T20:48:19;20.90;99.90
54158;DHT22;40065;49.894;10.358;2022-08-19T20:53:21;20.80;99.90
54158;DHT22;40065;49.894;10.358;2022-08-19T20:58:24;20.80;99.90
54158;DHT22;40065;49.894;10.358;2022-08-19T21:03:29;20.70;99.90
54158;DHT22;40065;49.894;10.358;2022-08-19T21:08:31;20.80;99.90
54158;DHT22;40065;49.894;10.358;2022-08-19T21:13:33;20.90;99.90
54158;DHT22;40065;49.894;10.358;2022-08-19T21:18:35;21.00;99.90
54158;DHT22;40065;49.894;10.358;2022-08-19T21:23:37;21.00;99.90
54158;DHT22;40065;49.894;10.358;2022-08-19T21:28:39;20.90;99.90
54158;DHT22;40065;49.894;10.358;2022-08-19T21:33:41;20.90;99.90
54158;DHT22;40065;49.894;10.358;2022-08-19T21:38:43;20.90;99.90
54158;DHT22;40065;49.894;10.358;2022-08-19T21:43:44;20.70;99.90
54158;DHT22;40065;49.894;10.358;2022-08-19T21:48:46;20.70;99.90
54158;DHT22;40065;49.894;10.358;2022-08-19T21:53:48;20.70;99.90
54158;DHT22;40065;49.894;10.358;2022-08-19T21:58:53;20.60;99.90
54158;DHT22;40065;49.894;10.358;2022-08-19T22:03:57;20.60;99.90
54158;DHT22;40065;49.894;10.358;2022-08-19T22:08:59;20.70;99.90
54158;DHT22;40065;49.894;10.358;2022-08-19T22:14:00;20.70;99.90
54158;DHT22;40065;49.894;10.358;2022-08-19T22:19:05;20.80;99.90
54158;DHT22;40065;49.894;10.358;2022-08-19T22:24:07;20.90;99.90
54158;DHT22;40065;49.894;10.358;2022-08-19T22:29:09;20.80;99.90
54158;DHT22;40065;49.894;10.358;2022-08-19T22:34:16;20.80;99.90
54158;DHT22;40065;49.894;10.358;2022-08-19T22:39:19;20.80;99.90
54158;DHT22;40065;49.894;10.358;2022-08-19T22:44:20;20.80;99.90
54158;DHT22;40065;49.894;10.358;2022-08-19T22:49:22;20.70;99.90
54158;DHT22;40065;49.894;10.358;2022-08-19T22:54:24;20.70;99.90
54158;DHT22;40065;49.894;10.358;2022-08-19T22:59:26;20.90;99.90
54158;DHT22;40065;49.894;10.358;2022-08-19T23:04:28;20.70;99.90
54158;DHT22;40065;49.894;10.358;2022-08-19T23:09:29;20.60;99.90
54158;DHT22;40065;49.894;10.358;2022-08-19T23:14:31;20.20;99.90
54158;DHT22;40065;49.894;10.358;2022-08-19T23:19:34;20.20;99.90
54158;DHT22;40065;49.894;10.358;2022-08-19T23:24:36;20.40;99.90
54158;DHT22;40065;49.894;10.358;2022-08-19T23:29:39;20.30;99.90
54158;DHT22;40065;49.894;10.358;2022-08-19T23:34:59;20.40;99.90
54158;DHT22;40065;49.894;10.358;2022-08-19T23:40:02;20.40;99.90
54158;DHT22;40065;49.894;10.358;2022-08-19T23:45:05;20.40;99.90
54158;DHT22;40065;49.894;10.358;2022-08-19T23:50:08;20.40;99.90
54158;DHT22;40065;49.894;10.358;2022-08-19T23:55:10;20.40;99.90
